createdAt,value
2024-02-14T00:00:22.246Z,22.09
2024-02-14T00:01:22.339Z,22.09
2024-02-14T00:02:22.331Z,22.10
2024-02-14T00:03:22.398Z,22.10
2024-02-14T00:04:22.456Z,22.11
2024-02-14T00:05:22.642Z,22.10
2024-02-14T00:06:22.600Z,22.10
2024-02-14T00:07:22.658Z,22.11
2024-02-14T00:08:22.709Z,22.10
2024-02-14T00:09:22.742Z,22.10
2024-02-14T00:10:22.787Z,22.10
2024-02-14T00:11:23.005Z,22.11
2024-02-14T00:12:22.910Z,22.11
2024-02-14T00:13:22.977Z,22.11
2024-02-14T00:14:23.064Z,22.11
2024-02-14T00:15:23.079Z,22.11
2024-02-14T00:16:23.133Z,22.10
2024-02-14T00:17:23.234Z,22.10
2024-02-14T00:18:23.303Z,22.10
2024-02-14T00:19:23.443Z,22.11
2024-02-14T00:20:23.399Z,22.11
2024-02-14T00:21:23.421Z,22.11
2024-02-14T00:22:23.489Z,22.10
2024-02-14T00:23:23.585Z,22.10
2024-02-14T00:24:23.612Z,22.10
2024-02-14T00:25:23.676Z,22.10
2024-02-14T00:26:23.759Z,22.10
2024-02-14T00:27:23.788Z,22.11
2024-02-14T00:28:23.819Z,22.10
2024-02-14T00:29:23.894Z,22.11
2024-02-14T00:30:23.942Z,22.10
2024-02-14T00:31:24.017Z,22.10
2024-02-14T00:32:24.232Z,22.10
2024-02-14T00:33:24.456Z,22.10
2024-02-14T00:34:24.332Z,22.09
2024-02-14T00:35:24.444Z,22.09
2024-02-14T00:36:24.369Z,22.10
2024-02-14T00:37:24.410Z,22.10
2024-02-14T00:38:24.496Z,22.10
2024-02-14T00:39:24.493Z,22.10
2024-02-14T00:40:24.542Z,22.09
2024-02-14T00:41:24.847Z,22.09
2024-02-14T00:42:24.614Z,22.10
2024-02-14T00:43:24.684Z,22.09
2024-02-14T00:44:24.787Z,22.09
2024-02-14T00:45:24.802Z,22.09
2024-02-14T00:46:24.884Z,22.09
2024-02-14T00:47:25.028Z,22.10
2024-02-14T00:48:25.129Z,22.09
2024-02-14T00:49:25.186Z,22.10
2024-02-14T00:50:25.111Z,22.10
2024-02-14T00:51:25.088Z,22.10
2024-02-14T00:52:25.086Z,22.09
2024-02-14T00:53:25.174Z,22.09
2024-02-14T00:54:25.170Z,22.10
2024-02-14T00:55:25.239Z,22.10
2024-02-14T00:56:25.376Z,22.11
2024-02-14T00:57:25.331Z,22.10
2024-02-14T00:58:25.359Z,22.10
2024-02-14T00:59:25.442Z,22.10
2024-02-14T01:00:25.434Z,22.09
2024-02-14T01:01:25.467Z,22.10
2024-02-14T01:02:25.563Z,22.10
2024-02-14T01:03:26.303Z,22.10
2024-02-14T01:04:25.616Z,22.10
2024-02-14T01:05:25.745Z,22.10
2024-02-14T01:06:25.811Z,22.09
2024-02-14T01:07:25.792Z,22.10
2024-02-14T01:08:25.883Z,22.10
2024-02-14T01:09:25.854Z,22.10
2024-02-14T01:10:25.870Z,22.10
2024-02-14T01:11:25.992Z,22.10
2024-02-14T01:12:25.951Z,22.10
2024-02-14T01:13:25.993Z,22.10
2024-02-14T01:14:26.044Z,22.10
2024-02-14T01:15:26.090Z,22.10
2024-02-14T01:16:26.108Z,22.09
2024-02-14T01:17:26.360Z,22.10
2024-02-14T01:18:26.606Z,22.10
2024-02-14T01:19:26.397Z,22.10
2024-02-14T01:20:26.463Z,22.10
2024-02-14T01:21:26.453Z,22.10
2024-02-14T01:22:26.510Z,22.09
2024-02-14T01:23:26.623Z,22.09
2024-02-14T01:24:26.680Z,22.10
2024-02-14T01:25:26.745Z,22.10
2024-02-14T01:26:26.829Z,22.09
2024-02-14T01:27:26.873Z,22.09
2024-02-14T01:28:26.919Z,22.10
2024-02-14T01:29:27.001Z,22.09
2024-02-14T01:30:27.039Z,22.09
2024-02-14T01:31:27.084Z,22.09
2024-02-14T01:32:27.208Z,22.09
2024-02-14T01:33:27.262Z,22.10
2024-02-14T01:34:27.384Z,22.09
2024-02-14T01:35:27.353Z,22.09
2024-02-14T01:36:27.407Z,22.09
2024-02-14T01:37:27.443Z,22.09
2024-02-14T01:38:27.520Z,22.10
2024-02-14T01:39:27.532Z,22.09
2024-02-14T01:40:27.593Z,22.09
2024-02-14T01:41:27.677Z,22.09
2024-02-14T01:42:27.652Z,22.09
2024-02-14T01:43:27.667Z,22.09
2024-02-14T01:44:27.710Z,22.09
2024-02-14T01:45:27.705Z,22.09
2024-02-14T01:46:27.753Z,22.09
2024-02-14T01:47:27.912Z,22.09
2024-02-14T01:48:27.927Z,22.09
2024-02-14T01:49:27.958Z,22.09
2024-02-14T01:50:27.928Z,22.09
2024-02-14T01:51:28.287Z,22.09
2024-02-14T01:52:28.000Z,22.09
2024-02-14T01:53:28.045Z,22.09
2024-02-14T01:54:28.093Z,22.09
2024-02-14T01:55:28.108Z,22.09
2024-02-14T01:56:28.184Z,22.09
2024-02-14T01:57:28.181Z,22.08
2024-02-14T01:58:28.230Z,22.08
2024-02-14T01:59:28.306Z,22.09
2024-02-14T02:00:28.309Z,22.08
2024-02-14T02:01:28.363Z,22.08
2024-02-14T02:02:28.410Z,22.08
2024-02-14T02:03:28.500Z,22.08
2024-02-14T02:04:28.444Z,22.08
2024-02-14T02:05:28.587Z,22.08
2024-02-14T02:06:28.577Z,22.08
2024-02-14T02:07:28.602Z,22.08
2024-02-14T02:08:28.654Z,22.09
2024-02-14T02:09:28.700Z,22.08
2024-02-14T02:10:28.797Z,22.07
2024-02-14T02:11:28.849Z,22.08
2024-02-14T02:12:28.934Z,22.07
2024-02-14T02:13:28.974Z,22.08
2024-02-14T02:14:29.037Z,22.08
2024-02-14T02:15:29.073Z,22.08
2024-02-14T02:16:29.118Z,22.08
2024-02-14T02:17:29.222Z,22.08
2024-02-14T02:18:29.338Z,22.08
2024-02-14T02:19:29.277Z,22.08
2024-02-14T02:20:29.397Z,22.08
2024-02-14T02:21:29.349Z,22.09
2024-02-14T02:22:29.377Z,22.08
2024-02-14T02:23:29.436Z,22.08
2024-02-14T02:24:29.429Z,22.07
2024-02-14T02:25:29.480Z,22.07
2024-02-14T02:26:29.544Z,22.08
2024-02-14T02:27:29.553Z,22.07
2024-02-14T02:28:29.609Z,22.07
2024-02-14T02:29:29.696Z,22.07
2024-02-14T02:30:29.705Z,22.07
2024-02-14T02:31:29.785Z,22.07
2024-02-14T02:32:29.929Z,22.07
2024-02-14T02:33:29.994Z,22.07
2024-02-14T02:34:30.175Z,22.07
2024-02-14T02:35:29.974Z,22.08
2024-02-14T02:36:29.987Z,22.07
2024-02-14T02:37:30.023Z,22.08
2024-02-14T02:38:30.077Z,22.08
2024-02-14T02:39:30.135Z,22.08
2024-02-14T02:40:30.173Z,22.08
2024-02-14T02:41:30.249Z,22.08
2024-02-14T02:42:30.324Z,22.09
2024-02-14T02:43:30.340Z,22.08
2024-02-14T02:44:30.480Z,22.08
2024-02-14T02:45:30.476Z,22.08
2024-02-14T02:46:30.512Z,22.08
2024-02-14T02:47:30.648Z,22.08
2024-02-14T02:48:30.849Z,22.09
2024-02-14T02:49:30.729Z,22.08
2024-02-14T02:50:30.751Z,22.08
2024-02-14T02:51:30.792Z,22.08
2024-02-14T02:52:30.812Z,22.08
2024-02-14T02:53:30.902Z,22.08
2024-02-14T02:54:30.912Z,22.08
2024-02-14T02:55:30.972Z,22.08
2024-02-14T02:56:31.045Z,22.08
2024-02-14T02:57:31.026Z,22.08
2024-02-14T02:58:31.063Z,22.08
2024-02-14T02:59:31.114Z,22.08
2024-02-14T03:00:31.183Z,22.08
2024-02-14T03:01:31.212Z,22.08
2024-02-14T03:02:31.288Z,22.08
2024-02-14T03:03:31.393Z,22.07
2024-02-14T03:04:41.486Z,22.07
2024-02-14T03:05:32.417Z,22.07
2024-02-14T03:20:31.667Z,21.84
2024-02-14T03:21:31.504Z,21.93
2024-02-14T03:22:31.494Z,21.97
2024-02-14T03:23:31.517Z,21.99
2024-02-14T03:24:31.495Z,22.01
2024-02-14T03:25:31.502Z,22.02
2024-02-14T03:26:31.516Z,22.03
2024-02-14T03:27:31.498Z,22.03
2024-02-14T03:28:31.498Z,22.05
2024-02-14T03:29:31.531Z,22.05
2024-02-14T03:30:31.503Z,22.05
2024-02-14T03:31:31.519Z,22.06
2024-02-14T03:32:31.562Z,22.06
2024-02-14T03:33:31.614Z,22.05
2024-02-14T03:34:31.626Z,22.06
2024-02-14T03:35:31.606Z,22.05
2024-02-14T03:36:31.662Z,22.05
2024-02-14T03:37:31.518Z,22.05
2024-02-14T03:38:31.544Z,22.06
2024-02-14T03:39:31.536Z,22.06
2024-02-14T03:40:31.602Z,22.06
2024-02-14T03:41:31.567Z,22.05
2024-02-14T03:42:31.528Z,22.05
2024-02-14T03:43:31.539Z,22.05
2024-02-14T03:44:31.559Z,22.06
2024-02-14T03:45:31.510Z,22.06
2024-02-14T03:46:31.525Z,22.06
2024-02-14T03:47:31.597Z,22.06
2024-02-14T03:48:31.632Z,22.06
2024-02-14T03:49:31.572Z,22.06
2024-02-14T03:50:31.569Z,22.05
2024-02-14T03:51:31.520Z,22.05
2024-02-14T03:52:31.549Z,22.05
2024-02-14T03:53:31.587Z,22.05
2024-02-14T03:54:31.546Z,22.05
2024-02-14T03:55:31.539Z,22.06
2024-02-14T03:56:31.606Z,22.05
2024-02-14T03:57:31.636Z,22.05
2024-02-14T03:58:31.571Z,22.05
2024-02-14T03:59:31.583Z,22.05
2024-02-14T04:00:31.560Z,22.05
2024-02-14T04:01:31.558Z,22.05
2024-02-14T04:02:31.576Z,22.05
2024-02-14T04:03:31.581Z,22.05
2024-02-14T04:04:31.577Z,22.04
2024-02-14T04:05:31.586Z,22.04
2024-02-14T04:06:31.660Z,22.05
2024-02-14T04:07:31.558Z,22.05
2024-02-14T04:08:31.625Z,22.05
2024-02-14T04:09:31.554Z,22.05
2024-02-14T04:10:31.581Z,22.05
2024-02-14T04:11:31.603Z,22.05
2024-02-14T04:12:31.583Z,22.06
2024-02-14T04:13:31.590Z,22.06
2024-02-14T04:14:31.607Z,22.05
2024-02-14T04:15:31.582Z,22.06
2024-02-14T04:16:31.578Z,22.05
2024-02-14T04:17:31.698Z,22.06
2024-02-14T04:18:31.768Z,22.05
2024-02-14T04:19:31.803Z,22.06
2024-02-14T04:20:31.736Z,22.05
2024-02-14T04:21:31.868Z,22.06
2024-02-14T04:22:31.720Z,22.06
2024-02-14T04:23:31.781Z,22.06
2024-02-14T04:24:31.796Z,22.08
2024-02-14T04:25:31.836Z,22.07
2024-02-14T04:26:31.914Z,22.08
2024-02-14T04:27:31.939Z,22.08
2024-02-14T04:28:31.990Z,22.08
2024-02-14T04:29:32.054Z,22.08
2024-02-14T04:30:32.088Z,22.09
2024-02-14T04:31:32.171Z,22.09
2024-02-14T04:32:32.450Z,22.10
2024-02-14T04:33:32.423Z,22.10
2024-02-14T04:34:32.654Z,22.11
2024-02-14T04:35:32.423Z,22.11
2024-02-14T04:36:32.381Z,22.12
2024-02-14T04:37:32.444Z,22.12
2024-02-14T04:38:33.355Z,22.12
2024-02-14T04:39:32.527Z,22.12
2024-02-14T04:40:32.556Z,22.13
2024-02-14T04:41:32.686Z,22.14
2024-02-14T04:42:40.020Z,22.12
2024-02-14T04:43:39.959Z,22.14
2024-02-14T04:44:39.993Z,22.14
2024-02-14T04:45:39.955Z,22.16
2024-02-14T04:46:39.965Z,22.17
2024-02-14T04:47:40.108Z,22.17
2024-02-14T04:48:40.005Z,22.17
2024-02-14T04:49:40.055Z,22.17
2024-02-14T04:50:39.988Z,22.18
2024-02-14T04:51:39.969Z,22.18
2024-02-14T04:52:39.961Z,22.19
2024-02-14T04:53:40.024Z,22.18
2024-02-14T04:54:39.969Z,22.19
2024-02-14T04:55:39.965Z,22.19
2024-02-14T04:56:39.988Z,22.19
2024-02-14T04:57:39.955Z,22.20
2024-02-14T04:58:39.982Z,22.19
2024-02-14T04:59:40.022Z,22.20
2024-02-14T05:00:39.967Z,22.20
2024-02-14T05:01:39.967Z,22.21
2024-02-14T05:02:39.995Z,22.21
2024-02-14T05:03:40.006Z,22.21
2024-02-14T05:04:39.977Z,22.21
2024-02-14T05:05:40.124Z,22.21
2024-02-14T05:06:40.103Z,22.22
2024-02-14T05:07:40.007Z,22.22
2024-02-14T05:08:40.003Z,22.23
2024-02-14T05:09:39.987Z,22.23
2024-02-14T05:10:39.982Z,22.24
2024-02-14T05:11:40.103Z,22.23
2024-02-14T05:12:39.979Z,22.24
2024-02-14T05:13:39.986Z,22.24
2024-02-14T05:14:40.055Z,22.23
2024-02-14T05:15:40.015Z,22.24
2024-02-14T05:16:39.990Z,22.23
2024-02-14T05:17:40.101Z,22.23
2024-02-14T05:18:40.204Z,22.24
2024-02-14T05:19:40.149Z,22.24
2024-02-14T05:20:40.200Z,22.25
2024-02-14T05:21:40.245Z,22.25
2024-02-14T05:22:40.307Z,22.24
2024-02-14T05:23:40.403Z,22.25
2024-02-14T05:24:40.453Z,22.25
2024-02-14T05:25:40.504Z,22.26
2024-02-14T05:26:40.581Z,22.26
2024-02-14T05:27:40.631Z,22.26
2024-02-14T05:28:40.736Z,22.26
2024-02-14T05:29:40.836Z,22.26
2024-02-14T05:30:40.880Z,22.26
2024-02-14T05:31:40.962Z,22.26
2024-02-14T05:32:41.282Z,22.27
2024-02-14T05:33:41.204Z,22.27
2024-02-14T05:34:41.160Z,22.27
2024-02-14T05:35:41.219Z,22.28
2024-02-14T05:36:41.303Z,22.27
2024-02-14T05:37:41.373Z,22.27
2024-02-14T05:38:41.466Z,22.28
2024-02-14T05:39:41.548Z,22.27
2024-02-14T05:40:41.583Z,22.28
2024-02-14T05:41:41.706Z,22.28
2024-02-14T05:42:41.711Z,22.28
2024-02-14T05:43:41.773Z,22.28
2024-02-14T05:44:41.897Z,22.29
2024-02-14T05:45:41.938Z,22.29
2024-02-14T05:46:42.003Z,22.29
2024-02-14T05:47:42.209Z,22.29
2024-02-14T05:48:43.216Z,22.30
2024-02-14T05:49:42.422Z,22.29
2024-02-14T05:50:42.295Z,22.30
2024-02-14T05:51:42.360Z,22.29
2024-02-14T05:52:42.411Z,22.30
2024-02-14T05:53:42.482Z,22.30
2024-02-14T05:54:42.542Z,22.30
2024-02-14T05:55:42.613Z,22.31
2024-02-14T05:56:42.762Z,22.31
2024-02-14T05:57:42.749Z,22.30
2024-02-14T05:58:42.820Z,22.30
2024-02-14T05:59:43.353Z,22.30
2024-02-14T06:00:43.098Z,22.31
2024-02-14T06:01:43.032Z,22.31
2024-02-14T06:02:43.166Z,22.31
2024-02-14T06:03:43.145Z,22.31
2024-02-14T06:04:43.217Z,22.31
2024-02-14T06:05:43.308Z,22.31
2024-02-14T06:06:43.403Z,22.31
2024-02-14T06:07:43.419Z,22.31
2024-02-14T06:08:43.664Z,22.31
2024-02-14T06:09:43.550Z,22.31
2024-02-14T06:10:43.612Z,22.32
2024-02-14T06:11:43.714Z,22.32
2024-02-14T06:12:43.749Z,22.33
2024-02-14T06:13:45.250Z,22.33
2024-02-14T06:14:43.930Z,22.33
2024-02-14T06:15:43.963Z,22.33
2024-02-14T06:16:44.050Z,22.33
2024-02-14T06:17:44.156Z,22.33
2024-02-14T06:18:44.302Z,22.33
2024-02-14T06:19:44.277Z,22.33
2024-02-14T06:20:44.369Z,22.34
2024-02-14T06:21:44.389Z,22.34
2024-02-14T06:22:50.561Z,22.35
2024-02-14T06:23:45.444Z,22.34
2024-02-14T06:24:44.441Z,22.34
2024-02-14T06:25:44.438Z,22.35
2024-02-14T06:26:44.482Z,22.34
2024-02-14T06:27:44.451Z,22.35
2024-02-14T06:28:44.453Z,22.35
2024-02-14T06:29:44.449Z,22.36
2024-02-14T06:30:44.457Z,22.36
2024-02-14T06:31:44.549Z,22.36
2024-02-14T06:32:44.734Z,22.36
2024-02-14T06:33:44.973Z,22.36
2024-02-14T06:34:44.895Z,22.36
2024-02-14T06:35:45.041Z,22.36
2024-02-14T06:36:44.849Z,22.36
2024-02-14T06:37:52.352Z,22.36
2024-02-14T06:38:45.953Z,22.36
2024-02-14T06:39:44.919Z,22.36
2024-02-14T06:40:44.921Z,22.35
2024-02-14T06:41:44.970Z,22.36
2024-02-14T06:42:44.913Z,22.37
2024-02-14T06:43:44.910Z,22.36
2024-02-14T06:44:44.965Z,22.36
2024-02-14T06:45:44.966Z,22.37
2024-02-14T06:46:44.967Z,22.37
2024-02-14T06:47:45.093Z,22.37
2024-02-14T06:48:45.247Z,22.37
2024-02-14T06:49:45.207Z,22.38
2024-02-14T06:50:45.248Z,22.38
2024-02-14T06:51:45.301Z,22.37
2024-02-14T06:52:46.120Z,22.38
2024-02-14T06:53:45.454Z,22.37
2024-02-14T06:54:45.516Z,22.37
2024-02-14T06:55:47.666Z,22.38
2024-02-14T06:56:45.646Z,22.38
2024-02-14T06:57:45.716Z,22.38
2024-02-14T06:58:45.752Z,22.38
2024-02-14T06:59:45.873Z,22.39
2024-02-14T07:00:45.909Z,22.39
2024-02-14T07:01:45.953Z,22.38
2024-02-14T07:02:46.045Z,22.39
2024-02-14T07:03:46.110Z,22.39
2024-02-14T07:04:46.254Z,22.39
2024-02-14T07:05:46.326Z,22.40
2024-02-14T07:06:46.371Z,22.40
2024-02-14T07:07:46.362Z,22.42
2024-02-14T07:08:46.461Z,22.45
2024-02-14T07:09:46.511Z,22.49
2024-02-14T07:10:46.557Z,22.49
2024-02-14T07:11:46.598Z,22.48
2024-02-14T07:12:46.641Z,22.47
2024-02-14T07:13:46.693Z,22.46
2024-02-14T07:14:46.802Z,22.47
2024-02-14T07:15:46.825Z,22.46
2024-02-14T07:16:46.861Z,22.46
2024-02-14T07:17:47.038Z,22.46
2024-02-14T07:18:47.125Z,22.46
2024-02-14T07:19:47.162Z,22.46
2024-02-14T07:20:47.091Z,22.46
2024-02-14T07:21:47.143Z,22.46
2024-02-14T07:22:47.213Z,22.47
2024-02-14T07:23:47.287Z,22.46
2024-02-14T07:24:47.301Z,22.47
2024-02-14T07:25:47.378Z,22.47
2024-02-14T07:26:47.433Z,22.46
2024-02-14T07:27:47.453Z,22.46
2024-02-14T07:28:47.508Z,22.47
2024-02-14T07:29:47.652Z,22.47
2024-02-14T07:30:47.659Z,22.46
2024-02-14T07:31:47.660Z,22.47
2024-02-14T07:32:47.958Z,22.47
2024-02-14T07:33:47.930Z,22.47
2024-02-14T07:34:47.882Z,22.47
2024-02-14T07:35:47.899Z,22.48
2024-02-14T07:36:47.939Z,22.48
2024-02-14T07:37:47.978Z,22.49
2024-02-14T07:38:48.074Z,22.49
2024-02-14T07:39:48.118Z,22.48
2024-02-14T07:40:48.135Z,22.49
2024-02-14T07:41:48.255Z,22.49
2024-02-14T07:42:48.257Z,22.49
2024-02-14T07:43:48.315Z,22.50
2024-02-14T07:44:48.400Z,22.50
2024-02-14T07:45:48.410Z,22.50
2024-02-14T07:46:48.467Z,22.50
2024-02-14T07:47:48.608Z,22.51
2024-02-14T07:48:48.652Z,22.51
2024-02-14T07:49:48.664Z,22.51
2024-02-14T07:50:48.713Z,22.51
2024-02-14T07:51:48.736Z,22.52
2024-02-14T07:52:48.777Z,22.52
2024-02-14T07:53:48.881Z,22.52
2024-02-14T07:54:48.863Z,22.52
2024-02-14T07:55:48.909Z,22.52
2024-02-14T07:56:49.014Z,22.52
2024-02-14T07:57:49.035Z,22.52
2024-02-14T07:58:49.078Z,22.52
2024-02-14T07:59:49.136Z,22.52
2024-02-14T08:00:50.227Z,22.52
2024-02-14T08:01:49.328Z,22.52
2024-02-14T08:02:49.323Z,22.53
2024-02-14T08:03:49.395Z,22.53
2024-02-14T08:04:51.747Z,22.53
2024-02-14T08:05:49.428Z,22.53
2024-02-14T08:06:49.476Z,22.54
2024-02-14T08:07:49.389Z,22.54
2024-02-14T08:08:49.410Z,22.54
2024-02-14T08:09:49.413Z,22.55
2024-02-14T08:10:49.378Z,22.55
2024-02-14T08:11:49.461Z,22.54
2024-02-14T08:12:49.418Z,22.55
2024-02-14T08:13:49.405Z,22.55
2024-02-14T08:14:49.424Z,22.56
2024-02-14T08:15:49.417Z,22.56
2024-02-14T08:16:49.416Z,22.56
2024-02-14T08:17:49.880Z,22.56
2024-02-14T08:18:49.515Z,22.56
2024-02-14T08:19:49.624Z,22.56
2024-02-14T08:20:49.450Z,22.57
2024-02-14T08:21:49.419Z,22.56
2024-02-14T08:22:49.415Z,22.56
2024-02-14T08:23:49.442Z,22.57
2024-02-14T08:24:49.432Z,22.58
2024-02-14T08:25:49.413Z,22.58
2024-02-14T08:26:49.445Z,22.58
2024-02-14T08:27:49.428Z,22.59
2024-02-14T08:28:49.448Z,22.59
2024-02-14T08:29:49.471Z,22.60
2024-02-14T08:30:49.431Z,22.60
2024-02-14T08:31:49.442Z,22.59
2024-02-14T08:32:49.532Z,22.60
2024-02-14T08:33:49.604Z,22.60
2024-02-14T08:34:49.525Z,22.61
2024-02-14T08:35:49.561Z,22.62
2024-02-14T08:36:49.434Z,22.62
2024-02-14T08:37:49.466Z,22.62
2024-02-14T08:38:49.525Z,22.63
2024-02-14T08:39:49.414Z,22.62
2024-02-14T08:40:49.413Z,22.63
2024-02-14T08:41:49.467Z,22.63
2024-02-14T08:42:49.478Z,22.62
2024-02-14T08:43:49.556Z,22.62
2024-02-14T08:44:49.606Z,22.63
2024-02-14T08:45:49.585Z,22.63
2024-02-14T08:46:49.627Z,22.63
2024-02-14T08:47:49.731Z,22.63
2024-02-14T08:48:50.076Z,22.63
2024-02-14T08:49:49.806Z,22.63
2024-02-14T08:50:49.900Z,22.64
2024-02-14T08:51:49.840Z,22.64
2024-02-14T08:52:49.862Z,22.65
2024-02-14T08:53:50.198Z,22.65
2024-02-14T08:54:52.377Z,22.66
2024-02-14T08:55:49.944Z,22.66
2024-02-14T08:56:50.016Z,22.67
2024-02-14T08:57:49.954Z,22.68
2024-02-14T08:58:49.953Z,22.69
2024-02-14T08:59:50.041Z,22.71
2024-02-14T09:00:52.280Z,22.73
2024-02-14T09:01:50.978Z,22.77
2024-02-14T09:02:50.036Z,22.77
2024-02-14T09:03:51.116Z,22.77
2024-02-14T09:04:49.989Z,22.79
2024-02-14T09:05:50.019Z,22.78
2024-02-14T09:06:50.017Z,22.78
2024-02-14T09:07:49.968Z,22.83
2024-02-14T09:08:50.014Z,22.81
2024-02-14T09:09:49.970Z,22.79
2024-02-14T09:10:49.970Z,22.78
2024-02-14T09:11:50.042Z,22.78
2024-02-14T09:12:49.975Z,22.77
2024-02-14T09:13:49.974Z,22.78
2024-02-14T09:14:50.046Z,22.78
2024-02-14T09:15:49.968Z,22.78
2024-02-14T09:16:49.980Z,22.77
2024-02-14T09:17:50.068Z,22.78
2024-02-14T09:18:50.093Z,22.78
2024-02-14T09:19:50.048Z,22.78
2024-02-14T09:20:50.030Z,22.78
2024-02-14T09:21:50.065Z,22.78
2024-02-14T09:22:50.052Z,22.78
2024-02-14T09:23:50.163Z,22.78
2024-02-14T09:24:50.088Z,22.78
2024-02-14T09:25:50.112Z,22.78
2024-02-14T09:26:50.192Z,22.78
2024-02-14T09:27:50.206Z,22.78
2024-02-14T09:28:50.201Z,22.78
2024-02-14T09:29:50.270Z,22.79
2024-02-14T09:30:50.273Z,22.79
2024-02-14T09:31:50.318Z,22.79
2024-02-14T09:32:50.402Z,22.80
2024-02-14T09:33:50.655Z,22.79
2024-02-14T09:34:50.426Z,22.80
2024-02-14T09:35:50.406Z,22.81
2024-02-14T09:36:50.426Z,22.81
2024-02-14T09:37:50.457Z,22.82
2024-02-14T09:38:50.483Z,22.83
2024-02-14T09:39:50.515Z,22.84
2024-02-14T09:40:50.553Z,22.84
2024-02-14T09:41:50.578Z,22.84
2024-02-14T09:42:50.579Z,22.85
2024-02-14T09:43:50.605Z,22.86
2024-02-14T09:44:50.640Z,22.87
2024-02-14T09:45:50.635Z,22.89
2024-02-14T09:46:50.665Z,22.90
2024-02-14T09:47:50.776Z,22.91
2024-02-14T09:48:50.851Z,22.92
2024-02-14T09:49:50.762Z,22.92
2024-02-14T09:50:50.799Z,22.94
2024-02-14T09:51:50.741Z,22.95
2024-02-14T09:52:50.738Z,22.95
2024-02-14T09:53:50.820Z,22.95
2024-02-14T09:54:50.774Z,22.95
2024-02-14T09:55:50.788Z,22.96
2024-02-14T09:56:50.804Z,23.03
2024-02-14T09:57:50.802Z,23.12
2024-02-14T09:58:50.828Z,23.26
2024-02-14T09:59:50.924Z,23.33
2024-02-14T10:00:50.845Z,23.28
2024-02-14T10:01:50.875Z,23.32
2024-02-14T10:02:50.901Z,23.42
2024-02-14T10:03:50.928Z,23.49
2024-02-14T10:04:51.102Z,23.49
2024-02-14T10:05:51.087Z,23.53
2024-02-14T10:06:51.131Z,23.56
2024-02-14T10:07:51.168Z,23.63
2024-02-14T10:08:58.795Z,23.67
2024-02-14T10:09:52.253Z,23.61
2024-02-14T10:10:53.072Z,23.59
2024-02-14T10:11:51.261Z,23.60
2024-02-14T10:12:51.242Z,23.70
2024-02-14T10:13:51.249Z,23.83
2024-02-14T10:14:51.326Z,23.91
2024-02-14T10:15:51.252Z,23.99
2024-02-14T10:16:51.280Z,24.07
2024-02-14T10:17:51.371Z,24.22
2024-02-14T10:18:51.410Z,24.34
2024-02-14T10:19:51.286Z,24.43
2024-02-14T10:20:51.321Z,24.49
2024-02-14T10:21:51.265Z,24.52
2024-02-14T10:22:51.279Z,24.58
2024-02-14T10:23:51.295Z,24.61
2024-02-14T10:24:51.274Z,24.65
2024-02-14T10:25:51.280Z,24.70
2024-02-14T10:26:51.344Z,24.77
2024-02-14T10:27:51.269Z,24.84
2024-02-14T10:28:51.344Z,24.85
2024-02-14T10:29:51.313Z,24.87
2024-02-14T10:30:51.260Z,24.87
2024-02-14T10:31:51.278Z,24.87
2024-02-14T10:32:51.417Z,24.89
2024-02-14T10:33:51.415Z,24.93
2024-02-14T10:34:51.396Z,24.96
2024-02-14T10:35:51.381Z,24.97
2024-02-14T10:36:51.283Z,24.96
2024-02-14T10:37:51.289Z,24.94
2024-02-14T10:38:51.323Z,24.95
2024-02-14T10:39:51.274Z,24.95
2024-02-14T10:40:51.297Z,24.94
2024-02-14T10:41:51.380Z,24.92
2024-02-14T10:42:51.331Z,24.92
2024-02-14T10:43:51.280Z,24.92
2024-02-14T10:44:51.348Z,24.93
2024-02-14T10:45:51.296Z,24.96
2024-02-14T10:46:51.303Z,24.96
2024-02-14T10:47:51.414Z,24.97
2024-02-14T10:48:51.433Z,24.98
2024-02-14T10:49:51.383Z,24.98
2024-02-14T10:50:51.339Z,24.99
2024-02-14T10:51:51.302Z,25.02
2024-02-14T10:52:51.306Z,25.04
2024-02-14T10:53:51.357Z,25.05
2024-02-14T10:54:51.302Z,25.05
2024-02-14T10:55:51.297Z,25.03
2024-02-14T10:56:51.437Z,25.05
2024-02-14T10:57:51.309Z,25.09
2024-02-14T10:58:51.311Z,25.11
2024-02-14T10:59:51.352Z,25.11
2024-02-14T11:00:51.319Z,25.10
2024-02-14T11:01:51.477Z,25.12
2024-02-14T11:02:51.440Z,25.08
2024-02-14T11:03:51.394Z,25.09
2024-02-14T11:04:51.333Z,25.11
2024-02-14T11:05:51.540Z,25.14
2024-02-14T11:06:51.450Z,25.17
2024-02-14T11:07:51.325Z,25.13
2024-02-14T11:08:51.369Z,25.07
2024-02-14T11:09:51.401Z,25.04
2024-02-14T11:10:51.334Z,24.99
2024-02-14T11:11:51.774Z,24.95
2024-02-14T11:12:51.345Z,24.93
2024-02-14T11:13:51.355Z,24.93
2024-02-14T11:14:51.402Z,24.94
2024-02-14T11:15:51.362Z,24.92
2024-02-14T11:16:51.343Z,24.88
2024-02-14T11:17:51.520Z,24.87
2024-02-14T11:18:51.469Z,24.85
2024-02-14T11:19:51.544Z,24.89
2024-02-14T11:20:51.462Z,24.91
2024-02-14T11:21:51.412Z,24.86
2024-02-14T11:22:51.354Z,24.84
2024-02-14T11:23:51.384Z,24.86
2024-02-14T11:24:51.347Z,24.87
2024-02-14T11:25:51.340Z,24.88
2024-02-14T11:26:51.445Z,24.86
2024-02-14T11:27:51.377Z,24.86
2024-02-14T11:28:51.393Z,24.91
2024-02-14T11:29:51.442Z,24.94
2024-02-14T11:30:51.505Z,24.89
2024-02-14T11:31:51.537Z,24.92
2024-02-14T11:32:51.605Z,24.96
2024-02-14T11:33:51.698Z,24.96
2024-02-14T11:34:51.642Z,24.95
2024-02-14T11:35:51.653Z,24.95
2024-02-14T11:36:51.651Z,24.86
2024-02-14T11:37:51.720Z,24.83
2024-02-14T11:38:51.853Z,24.81
2024-02-14T11:39:51.774Z,24.81
2024-02-14T11:40:53.881Z,24.80
2024-02-14T11:41:52.286Z,24.75
2024-02-14T11:42:51.807Z,24.71
2024-02-14T11:43:51.817Z,24.67
2024-02-14T11:44:51.909Z,24.65
2024-02-14T11:45:51.873Z,24.63
2024-02-14T11:46:51.856Z,24.67
2024-02-14T11:47:51.862Z,24.75
2024-02-14T11:50:12.454Z,24.47
2024-02-14T11:50:44.936Z,24.54
2024-02-14T11:51:44.921Z,24.55
2024-02-14T11:52:44.932Z,24.53
2024-02-14T11:53:45.019Z,24.53
2024-02-14T11:54:44.954Z,24.51
2024-02-14T11:55:44.921Z,24.56
2024-02-14T11:56:45.660Z,24.54
2024-02-14T11:57:44.925Z,24.52
2024-02-14T11:58:44.967Z,24.53
2024-02-14T11:59:44.957Z,24.50
2024-02-14T12:00:44.968Z,24.51
2024-02-14T12:01:44.931Z,24.53
2024-02-14T12:02:45.563Z,24.50
2024-02-14T12:03:45.082Z,24.46
2024-02-14T12:04:45.089Z,24.45
2024-02-14T12:05:45.088Z,24.44
2024-02-14T12:06:46.784Z,24.43
2024-02-14T12:07:45.209Z,24.40
2024-02-14T12:08:45.056Z,24.37
2024-02-14T12:09:45.007Z,24.36
2024-02-14T12:10:44.946Z,24.34
2024-02-14T12:11:45.224Z,24.33
2024-02-14T12:12:44.951Z,24.31
2024-02-14T12:13:45.040Z,24.30
2024-02-14T12:14:44.994Z,24.29
2024-02-14T12:15:45.026Z,24.26
2024-02-14T12:16:45.093Z,24.25
2024-02-14T12:17:45.274Z,24.30
2024-02-14T12:18:45.459Z,24.34
2024-02-14T12:19:45.466Z,24.31
2024-02-14T12:20:45.612Z,24.31
2024-02-14T12:21:45.546Z,24.29
2024-02-14T12:22:45.521Z,24.25
2024-02-14T12:23:45.748Z,24.31
2024-02-14T12:24:45.703Z,24.29
2024-02-14T12:25:45.746Z,24.26
2024-02-14T12:26:45.882Z,24.24
2024-02-14T12:27:45.863Z,24.24
2024-02-14T12:28:45.931Z,24.27
2024-02-14T12:29:46.604Z,24.31
2024-02-14T12:30:46.077Z,24.34
2024-02-14T12:31:46.135Z,24.39
2024-02-14T12:32:46.295Z,24.36
2024-02-14T12:33:46.454Z,24.35
2024-02-14T12:34:46.450Z,24.38
2024-02-14T12:35:46.455Z,24.43
2024-02-14T12:36:46.488Z,24.46
2024-02-14T12:37:46.526Z,24.49
2024-02-14T12:38:46.599Z,24.50
2024-02-14T12:39:46.638Z,24.53
2024-02-14T12:40:46.734Z,24.55
2024-02-14T12:41:46.807Z,24.57
2024-02-14T12:42:46.810Z,24.60
2024-02-14T12:43:46.861Z,24.62
2024-02-14T12:44:46.920Z,24.63
2024-02-14T12:45:46.931Z,24.64
2024-02-14T12:46:46.988Z,24.66
2024-02-14T12:47:47.053Z,24.68
2024-02-14T12:48:47.165Z,24.70
2024-02-14T12:49:47.233Z,24.72
2024-02-14T12:50:47.209Z,24.74
2024-02-14T12:51:47.202Z,24.75
2024-02-14T12:52:47.267Z,24.77
2024-02-14T12:53:47.313Z,24.77
2024-02-14T12:54:47.343Z,24.78
2024-02-14T12:55:47.368Z,24.81
2024-02-14T12:56:47.419Z,24.82
2024-02-14T12:57:47.433Z,24.83
2024-02-14T12:58:47.486Z,24.84
2024-02-14T12:59:47.516Z,24.83
2024-02-14T13:00:48.050Z,24.84
2024-02-14T13:01:47.649Z,24.85
2024-02-14T13:02:47.771Z,24.86
2024-02-14T13:03:47.841Z,24.85
2024-02-14T13:04:48.456Z,24.85
2024-02-14T13:05:47.709Z,24.86
2024-02-14T13:06:47.696Z,24.87
2024-02-14T13:07:47.712Z,24.87